createdAt,value
2022-10-06T00:02:25.423Z,101667.31
2022-10-06T00:04:52.352Z,101672.13
2022-10-06T00:07:19.556Z,101663.28
2022-10-06T00:09:46.780Z,101670.03
2022-10-06T00:12:13.721Z,101682.59
2022-10-06T00:14:41.048Z,101675.69
2022-10-06T00:17:07.959Z,101676.84
2022-10-06T00:19:34.816Z,101680.22
2022-10-06T00:22:01.890Z,101681.75
2022-10-06T00:24:28.780Z,101688.41
2022-10-06T00:26:55.725Z,101686.03
2022-10-06T00:29:22.863Z,101685.59
2022-10-06T00:31:49.716Z,101689.16
2022-10-06T00:34:16.626Z,101688.41
2022-10-06T00:36:44.036Z,101683.59
2022-10-06T00:39:10.928Z,101691.31
2022-10-06T00:41:39.078Z,101687.34
2022-10-06T00:44:06.144Z,101686.13
2022-10-06T00:46:33.849Z,101692.22
2022-10-06T00:49:24.236Z,101690.00
2022-10-06T00:52:00.276Z,101696.97
2022-10-06T00:54:27.688Z,101699.25
2022-10-06T00:56:54.750Z,101706.69
2022-10-06T00:59:21.660Z,101703.19
2022-10-06T01:02:07.345Z,101703.81
2022-10-06T01:04:36.912Z,101719.06
2022-10-06T01:07:04.215Z,101720.31
2022-10-06T01:09:31.667Z,101711.44
2022-10-06T01:12:00.907Z,101720.91
2022-10-06T01:14:28.435Z,101720.63
2022-10-06T01:17:15.618Z,101728.16
2022-10-06T01:19:57.629Z,101736.91
2022-10-06T01:22:27.585Z,101729.69
2022-10-06T01:24:55.062Z,101734.53
2022-10-06T01:27:23.628Z,101735.47
2022-10-06T01:29:52.876Z,101733.06
2022-10-06T01:32:20.732Z,101729.50
2022-10-06T01:34:47.641Z,101727.53
2022-10-06T01:37:15.032Z,101730.00
2022-10-06T01:39:42.498Z,101736.72
2022-10-06T01:42:10.183Z,101735.91
2022-10-06T01:44:37.142Z,101739.28
2022-10-06T01:47:05.164Z,101739.09
2022-10-06T01:49:32.104Z,101746.84
2022-10-06T01:51:59.341Z,101750.38
2022-10-06T01:54:26.477Z,101740.03
2022-10-06T01:56:53.569Z,101739.91
2022-10-06T01:59:20.440Z,101739.19
2022-10-06T02:01:47.728Z,101753.84
2022-10-06T02:04:14.886Z,101745.94
2022-10-06T02:06:41.802Z,101745.00
2022-10-06T02:09:08.964Z,101742.78
2022-10-06T02:11:36.031Z,101740.06
2022-10-06T02:14:02.951Z,101743.81
2022-10-06T02:16:30.382Z,101742.97
2022-10-06T02:18:57.247Z,101741.50
2022-10-06T02:21:25.461Z,101753.22
2022-10-06T02:23:52.655Z,101760.09
2022-10-06T02:26:19.575Z,101759.81
2022-10-06T02:28:50.272Z,101772.50
2022-10-06T02:31:18.104Z,101774.22
2022-10-06T02:33:45.080Z,101762.28
2022-10-06T02:36:13.236Z,101776.63
2022-10-06T02:38:41.750Z,101777.09
2022-10-06T02:41:08.804Z,101780.06
2022-10-06T02:43:36.029Z,101773.75
2022-10-06T02:46:04.617Z,101782.63
2022-10-06T02:48:32.280Z,101779.47
2022-10-06T02:51:04.736Z,101783.47
2022-10-06T02:53:31.848Z,101784.56
2022-10-06T02:56:06.467Z,101793.59
2022-10-06T02:58:33.577Z,101794.09
2022-10-06T03:01:05.011Z,101783.28
2022-10-06T03:03:32.464Z,101795.72
2022-10-06T03:06:00.789Z,101799.78
2022-10-06T03:08:27.922Z,101805.44
2022-10-06T03:11:05.052Z,101817.66
2022-10-06T03:13:32.254Z,101818.63
2022-10-06T03:15:59.185Z,101820.97
2022-10-06T03:18:26.705Z,101817.53
2022-10-06T03:20:54.243Z,101811.91
2022-10-06T03:23:21.121Z,101822.72
2022-10-06T03:25:55.204Z,101829.06
2022-10-06T03:28:22.364Z,101831.53
2022-10-06T03:30:49.211Z,101831.88
2022-10-06T03:33:16.119Z,101835.50
2022-10-06T03:35:43.278Z,101838.06
2022-10-06T03:38:10.080Z,101839.31
2022-10-06T03:40:36.951Z,101846.19
2022-10-06T03:43:04.528Z,101851.31
2022-10-06T03:45:31.354Z,101845.59
2022-10-06T03:47:59.404Z,101841.75
2022-10-06T03:50:26.512Z,101849.69
2022-10-06T03:52:53.425Z,101852.47
2022-10-06T03:55:20.714Z,101858.53
2022-10-06T03:57:47.938Z,101866.81
2022-10-06T04:00:15.033Z,101869.44
2022-10-06T04:02:41.886Z,101877.28
2022-10-06T04:05:09.277Z,101878.91
2022-10-06T04:07:36.214Z,101888.69
2022-10-06T04:10:03.366Z,101877.75
2022-10-06T04:12:30.455Z,101886.31
2022-10-06T04:15:00.129Z,101904.38
2022-10-06T04:17:27.242Z,101902.88
2022-10-06T04:19:54.272Z,101913.88
2022-10-06T04:22:21.112Z,101925.31
2022-10-06T04:24:48.029Z,101919.28
2022-10-06T04:27:30.772Z,101935.13
2022-10-06T04:29:58.044Z,101940.25
2022-10-06T04:32:25.872Z,101948.81
2022-10-06T04:34:52.737Z,101951.13
2022-10-06T04:37:19.675Z,101963.16
2022-10-06T04:39:46.756Z,101969.34
2022-10-06T04:42:13.776Z,101965.28
2022-10-06T04:44:40.644Z,101982.81
2022-10-06T04:47:07.744Z,101986.31
2022-10-06T04:49:34.891Z,101993.41
2022-10-06T04:52:01.842Z,101988.06
2022-10-06T04:54:33.401Z,101989.25
2022-10-06T04:57:00.635Z,102000.69
2022-10-06T04:59:47.411Z,102008.94
2022-10-06T05:02:14.607Z,102008.34
2022-10-06T05:04:41.539Z,102017.81
2022-10-06T05:07:08.384Z,102025.91
2022-10-06T05:09:35.546Z,102025.91
2022-10-06T05:12:02.402Z,102031.19
2022-10-06T05:14:29.338Z,102036.16
2022-10-06T05:16:56.687Z,102045.28
2022-10-06T05:19:23.605Z,102047.47
2022-10-06T05:21:50.883Z,102052.56
2022-10-06T05:24:17.806Z,102036.13
2022-10-06T05:26:44.667Z,102035.72
2022-10-06T05:29:11.812Z,102045.72
2022-10-06T05:31:40.486Z,102055.34
2022-10-06T05:34:07.435Z,102060.97
2022-10-06T05:36:35.056Z,102055.28
2022-10-06T05:39:02.962Z,102055.78
2022-10-06T05:41:30.937Z,102062.34
2022-10-06T05:43:59.099Z,102067.53
2022-10-06T05:46:33.413Z,102061.66
2022-10-06T05:49:01.845Z,102082.00
2022-10-06T05:51:31.191Z,102097.88
2022-10-06T05:53:59.084Z,102108.22
2022-10-06T05:56:30.783Z,102113.59
2022-10-06T05:58:58.208Z,102117.69
2022-10-06T06:01:26.513Z,102115.63
2022-10-06T06:03:54.481Z,102127.72
2022-10-06T06:06:26.029Z,102132.25
2022-10-06T06:08:54.360Z,102146.09
2022-10-06T06:11:27.960Z,102147.97
2022-10-06T06:14:04.142Z,102150.13
2022-10-06T06:16:32.152Z,102160.16
2022-10-06T06:19:00.361Z,102166.38
2022-10-06T06:21:28.185Z,102172.69
2022-10-06T06:23:55.859Z,102178.50
2022-10-06T06:26:24.263Z,102179.78
2022-10-06T06:28:52.309Z,102193.69
2022-10-06T06:31:23.709Z,102211.34
2022-10-06T06:33:52.153Z,102217.34
2022-10-06T06:36:25.001Z,102225.19
2022-10-06T06:38:53.132Z,102224.16
2022-10-06T06:41:21.608Z,102232.97
2022-10-06T06:43:49.601Z,102248.25
2022-10-06T06:46:17.958Z,102259.34
2022-10-06T06:48:45.177Z,102262.94
2022-10-06T06:51:12.167Z,102268.31
2022-10-06T06:53:40.012Z,102286.31
2022-10-06T06:56:08.481Z,102286.94
2022-10-06T06:58:36.405Z,102295.06
2022-10-06T07:01:07.492Z,102305.56
2022-10-06T07:03:56.125Z,102304.91
2022-10-06T07:06:27.115Z,102317.44
2022-10-06T07:08:55.427Z,102316.97
2022-10-06T07:11:30.263Z,102329.56
2022-10-06T07:13:58.331Z,102332.22
2022-10-06T07:16:44.308Z,102338.25
2022-10-06T07:19:30.300Z,102348.28
2022-10-06T07:22:35.702Z,102352.97
2022-10-06T07:25:12.728Z,102352.38
2022-10-06T07:27:44.179Z,102363.31
2022-10-06T07:30:19.227Z,102368.13
2022-10-06T07:32:47.224Z,102375.72
2022-10-06T07:35:14.253Z,102370.34
2022-10-06T07:37:41.322Z,102381.28
2022-10-06T07:40:09.113Z,102382.69
2022-10-06T07:42:48.620Z,102383.66
2022-10-06T07:45:34.843Z,102387.19
2022-10-06T07:48:02.551Z,102395.16
2022-10-06T07:50:29.691Z,102403.97
2022-10-06T07:52:56.619Z,102409.38
2022-10-06T07:55:23.599Z,102412.25
2022-10-06T07:57:51.419Z,102419.53
2022-10-06T08:00:22.484Z,102414.59
2022-10-06T08:02:49.925Z,102423.06
2022-10-06T08:05:17.051Z,102424.25
2022-10-06T08:07:43.966Z,102428.19
2022-10-06T08:10:10.895Z,102426.94
2022-10-06T08:12:40.131Z,102435.31
2022-10-06T08:15:08.377Z,102439.97
2022-10-06T08:17:36.139Z,102447.09
2022-10-06T08:20:04.564Z,102450.91
2022-10-06T08:22:31.492Z,102457.03
2022-10-06T08:25:06.857Z,102463.91
2022-10-06T08:27:36.947Z,102462.19
2022-10-06T08:30:07.596Z,102474.16
2022-10-06T08:32:34.425Z,102464.94
2022-10-06T08:35:01.751Z,102462.09
2022-10-06T08:37:28.707Z,102468.72
2022-10-06T08:39:55.990Z,102481.41
2022-10-06T08:42:32.072Z,102479.03
2022-10-06T08:45:05.035Z,102482.09
2022-10-06T08:47:36.115Z,102490.00
2022-10-06T08:50:05.121Z,102481.28
2022-10-06T08:52:35.019Z,102488.75
2022-10-06T08:55:07.669Z,102498.97
2022-10-06T08:57:53.387Z,102498.06
2022-10-06T09:00:21.439Z,102509.50
2022-10-06T09:02:50.383Z,102509.06
2022-10-06T09:05:25.512Z,102509.91
2022-10-06T09:07:59.478Z,102509.91
2022-10-06T09:10:38.667Z,102510.16
2022-10-06T09:13:25.988Z,102509.59
2022-10-06T09:15:59.461Z,102523.78
2022-10-06T09:18:48.996Z,102531.66
2022-10-06T09:21:17.000Z,102537.13
2022-10-06T09:23:51.778Z,102547.25
2022-10-06T09:26:30.192Z,102539.91
2022-10-06T09:29:02.817Z,102549.22
2022-10-06T09:31:41.989Z,102539.41
2022-10-06T09:34:18.858Z,102552.06
2022-10-06T09:37:05.718Z,102551.50
2022-10-06T09:39:36.636Z,102555.88
2022-10-06T09:42:06.995Z,102547.97
2022-10-06T09:44:40.676Z,102567.78
2022-10-06T09:47:22.533Z,102566.06
2022-10-06T09:50:04.899Z,102559.00
2022-10-06T09:52:33.977Z,102579.09
2022-10-06T09:55:20.059Z,102579.78
2022-10-06T09:57:52.962Z,102586.63
2022-10-06T10:00:39.511Z,102589.78
2022-10-06T10:03:11.199Z,102594.00
2022-10-06T10:05:39.754Z,102587.13
2022-10-06T10:08:10.212Z,102597.28
2022-10-06T10:10:37.540Z,102602.50
2022-10-06T10:13:18.043Z,102598.53
2022-10-06T10:15:59.100Z,102590.66
2022-10-06T10:18:28.953Z,102597.88
2022-10-06T10:21:05.212Z,102598.97
2022-10-06T10:23:35.277Z,102595.31
2022-10-06T10:26:14.224Z,102602.38
2022-10-06T10:28:51.718Z,102606.94
2022-10-06T10:31:39.128Z,102615.31
2022-10-06T10:34:24.207Z,102605.22
2022-10-06T10:36:57.690Z,102603.84
2022-10-06T10:39:28.008Z,102602.31
2022-10-06T10:41:56.658Z,102619.66
2022-10-06T10:44:32.635Z,102615.09
2022-10-06T10:47:19.386Z,102608.38
2022-10-06T10:49:51.190Z,102621.72
2022-10-06T10:52:24.238Z,102619.00
2022-10-06T10:55:16.270Z,102616.13
2022-10-06T10:57:44.215Z,102617.88
2022-10-06T11:00:22.997Z,102618.06
2022-10-06T11:02:53.326Z,102624.44
2022-10-06T11:05:35.438Z,102616.72
2022-10-06T11:08:17.068Z,102630.63
2022-10-06T11:10:43.890Z,102620.41
2022-10-06T11:13:16.764Z,102631.16
2022-10-06T11:16:02.257Z,102639.66
2022-10-06T11:18:45.326Z,102636.34
2022-10-06T11:21:14.576Z,102632.31
2022-10-06T11:23:41.672Z,102636.44
2022-10-06T11:26:25.472Z,102636.31
2022-10-06T11:29:15.215Z,102629.75
2022-10-06T11:31:42.100Z,102638.00
2022-10-06T11:34:09.887Z,102648.50
2022-10-06T11:36:55.308Z,102641.41
2022-10-06T11:39:34.468Z,102650.59
2022-10-06T11:42:07.517Z,102651.00
2022-10-06T11:44:53.342Z,102657.97
2022-10-06T11:47:35.563Z,102656.22
2022-10-06T11:50:24.037Z,102667.75
2022-10-06T11:52:52.633Z,102673.03
2022-10-06T11:55:22.212Z,102677.13
2022-10-06T11:58:12.623Z,102671.28
2022-10-06T12:00:51.436Z,102665.25
2022-10-06T12:03:31.314Z,102679.31
2022-10-06T12:05:58.369Z,102677.28
2022-10-06T12:08:38.745Z,102684.75
2022-10-06T12:11:24.670Z,102684.09
2022-10-06T12:19:53.519Z,102683.44
2022-10-06T12:22:31.261Z,102672.34
2022-10-06T12:25:11.576Z,102679.16
2022-10-06T12:27:42.124Z,102696.41
2022-10-06T12:30:19.728Z,102689.94
2022-10-06T12:32:57.589Z,102684.72
2022-10-06T12:35:36.797Z,102684.69
2022-10-06T12:38:05.559Z,102692.00
2022-10-06T12:40:51.423Z,102691.97
2022-10-06T12:43:18.590Z,102689.88
2022-10-06T12:46:00.968Z,102691.19
2022-10-06T12:48:28.136Z,102696.44
2022-10-06T12:51:04.234Z,102697.53
2022-10-06T12:53:37.157Z,102693.66
2022-10-06T12:56:05.365Z,102694.47
2022-10-06T12:58:33.514Z,102694.13
2022-10-06T13:01:01.646Z,102690.28
2022-10-06T13:03:29.294Z,102693.06
2022-10-06T13:05:57.922Z,102696.06
2022-10-06T13:08:26.544Z,102695.66
2022-10-06T13:11:10.918Z,102698.22
2022-10-06T13:13:38.477Z,102702.22
2022-10-06T13:16:06.322Z,102699.97
2022-10-06T13:18:33.331Z,102699.63
2022-10-06T13:21:00.961Z,102703.25
2022-10-06T13:23:29.686Z,102706.09
2022-10-06T13:25:58.352Z,102707.06
2022-10-06T13:28:25.474Z,102709.81
2022-10-06T13:33:41.850Z,102715.00
2022-10-06T13:36:09.326Z,102715.66
2022-10-06T13:38:41.304Z,102710.91
2022-10-06T13:41:13.958Z,102708.47
2022-10-06T13:43:49.847Z,102701.81
2022-10-06T13:46:19.714Z,102708.91
2022-10-06T13:48:51.611Z,102706.53
2022-10-06T13:51:31.939Z,102705.97
2022-10-06T13:54:01.285Z,102716.75
2022-10-06T13:58:55.997Z,102717.59
2022-10-06T14:01:30.006Z,102715.47
2022-10-06T14:04:13.562Z,102712.13
2022-10-06T14:07:06.888Z,102714.94
2022-10-06T14:09:33.974Z,102719.31
2022-10-06T14:12:03.547Z,102720.69
2022-10-06T14:14:30.485Z,102727.44
2022-10-06T14:16:58.277Z,102731.72
2022-10-06T14:19:35.865Z,102724.38
2022-10-06T14:22:04.401Z,102732.66
2022-10-06T14:24:34.408Z,102736.44
2022-10-06T14:27:02.245Z,102741.69
2022-10-06T14:29:29.312Z,102736.38
2022-10-06T14:32:06.219Z,102744.19
2022-10-06T14:34:33.145Z,102742.13
2022-10-06T14:37:00.630Z,102747.19
2022-10-06T14:39:28.608Z,102753.69
2022-10-06T14:41:55.530Z,102744.50
2022-10-06T14:44:22.717Z,102748.84
2022-10-06T14:46:49.698Z,102746.66
2022-10-06T14:49:17.031Z,102753.84
2022-10-06T14:51:44.653Z,102753.56
2022-10-06T14:54:12.116Z,102754.25
2022-10-06T14:56:39.520Z,102754.84
2022-10-06T14:59:08.026Z,102767.88
2022-10-06T15:01:36.430Z,102758.13
2022-10-06T15:04:04.821Z,102757.25
2022-10-06T15:06:50.606Z,102760.50
2022-10-06T15:09:17.524Z,102753.47
2022-10-06T15:11:44.718Z,102759.38
2022-10-06T15:14:11.745Z,102749.53
2022-10-06T15:16:42.366Z,102752.06
2022-10-06T15:19:12.102Z,102756.78
2022-10-06T15:21:39.944Z,102761.47
2022-10-06T15:24:08.005Z,102763.63
2022-10-06T15:26:53.735Z,102763.34
2022-10-06T15:29:20.585Z,102773.19
2022-10-06T15:31:52.990Z,102774.31
2022-10-06T15:34:21.780Z,102776.38
2022-10-06T15:36:51.919Z,102777.38
2022-10-06T15:39:20.428Z,102781.69
2022-10-06T15:41:48.588Z,102769.91
2022-10-06T15:44:16.193Z,102770.06
2022-10-06T15:46:44.537Z,102772.94
2022-10-06T15:49:13.256Z,102765.69
2022-10-06T15:51:50.440Z,102773.41
2022-10-06T15:54:22.156Z,102773.97
2022-10-06T15:56:50.205Z,102774.72
2022-10-06T15:59:17.640Z,102774.44
2022-10-06T16:01:47.140Z,102774.03
2022-10-06T16:04:31.094Z,102781.72
2022-10-06T16:06:58.494Z,102784.16
2022-10-06T16:09:29.421Z,102784.09
2022-10-06T16:11:57.133Z,102793.53
2022-10-06T16:14:24.565Z,102790.34
2022-10-06T16:16:52.222Z,102795.13
2022-10-06T16:19:19.448Z,102803.78
2022-10-06T16:21:47.671Z,102794.16
2022-10-06T16:24:15.405Z,102804.16
2022-10-06T16:26:42.294Z,102803.88
2022-10-06T16:29:09.272Z,102803.50
2022-10-06T16:31:36.562Z,102806.81
2022-10-06T16:34:03.976Z,102810.06
2022-10-06T16:36:30.966Z,102808.22
2022-10-06T16:38:58.096Z,102813.22
2022-10-06T16:41:24.998Z,102813.63
2022-10-06T16:43:53.376Z,102815.25
2022-10-06T16:46:22.744Z,102816.25
2022-10-06T16:48:50.557Z,102823.34
2022-10-06T19:48:34.648Z,102903.84
2022-10-06T19:51:10.478Z,102905.41
2022-10-06T19:53:37.417Z,102910.31
2022-10-06T19:56:05.284Z,102920.66
2022-10-06T19:58:32.512Z,102908.03
2022-10-06T20:01:00.232Z,102914.81
2022-10-06T20:03:27.480Z,102919.59
2022-10-06T20:05:54.305Z,102918.81
2022-10-06T20:08:21.203Z,102923.22
2022-10-06T20:10:48.410Z,102926.47
2022-10-06T20:13:15.271Z,102930.56
2022-10-06T20:15:42.235Z,102931.03
2022-10-06T20:18:09.368Z,102925.81
2022-10-06T20:20:36.821Z,102932.91
2022-10-06T20:23:03.690Z,102938.16
2022-10-06T20:25:31.685Z,102932.97
2022-10-06T20:27:58.785Z,102935.47
2022-10-06T20:30:25.691Z,102926.66
2022-10-06T20:32:53.728Z,102933.72
2022-10-06T20:35:20.586Z,102935.59
2022-10-06T20:37:47.676Z,102938.34
2022-10-06T20:40:33.381Z,102939.03
2022-10-06T20:43:00.982Z,102942.91
2022-10-06T20:45:30.022Z,102944.75
2022-10-06T20:47:58.340Z,102947.22
2022-10-06T20:50:25.484Z,102945.06
2022-10-06T20:52:54.792Z,102941.31
2022-10-06T20:55:21.730Z,102948.91
2022-10-06T20:57:49.151Z,102955.94
2022-10-06T21:00:17.912Z,102948.59
2022-10-06T21:02:44.895Z,102945.66
2022-10-06T21:05:12.167Z,102947.41
2022-10-06T21:07:39.175Z,102946.53
2022-10-06T21:10:06.456Z,102956.44
2022-10-06T21:12:33.641Z,102948.75
2022-10-06T21:15:00.499Z,102939.34
2022-10-06T21:17:27.600Z,102939.41
2022-10-06T21:19:54.738Z,102934.13
2022-10-06T21:22:21.572Z,102943.59
2022-10-06T21:24:48.647Z,102938.75
2022-10-06T21:27:19.069Z,102936.97
2022-10-06T21:29:45.961Z,102939.38
2022-10-06T21:32:12.761Z,102946.31
2022-10-06T21:34:40.300Z,102934.09
2022-10-06T21:37:07.268Z,102944.31
2022-10-06T21:39:34.243Z,102945.97
2022-10-06T21:42:01.462Z,102938.78
2022-10-06T21:44:28.277Z,102942.50
2022-10-06T21:46:55.647Z,102937.66
2022-10-06T21:49:23.912Z,102940.75
2022-10-06T21:51:54.707Z,102939.34
2022-10-06T21:54:22.663Z,102938.38
2022-10-06T21:56:50.001Z,102936.75
2022-10-06T21:59:16.913Z,102942.84
2022-10-06T22:01:45.242Z,102941.22
2022-10-06T22:04:14.337Z,102936.06
2022-10-06T22:06:43.132Z,102933.34
2022-10-06T22:09:13.353Z,102932.34
2022-10-06T22:11:41.108Z,102927.88
2022-10-06T22:14:10.366Z,102935.44
2022-10-06T22:16:38.162Z,102934.34
2022-10-06T22:19:07.065Z,102928.59
2022-10-06T22:21:35.667Z,102932.19
2022-10-06T22:24:07.193Z,102924.28
2022-10-06T22:26:37.422Z,102926.22
2022-10-06T22:29:06.153Z,102923.63
2022-10-06T22:31:33.144Z,102921.09
2022-10-06T22:34:01.961Z,102921.22
2022-10-06T22:36:28.847Z,102915.16
2022-10-06T22:38:56.112Z,102917.22
2022-10-06T22:41:23.659Z,102913.53
2022-10-06T22:43:53.182Z,102911.78
2022-10-06T22:46:20.043Z,102913.78
2022-10-06T22:48:47.333Z,102907.47
2022-10-06T22:51:14.161Z,102904.75
2022-10-06T22:53:41.013Z,102903.28
2022-10-06T22:56:08.150Z,102905.94
2022-10-06T22:58:34.991Z,102910.31
2022-10-06T23:01:09.358Z,102911.41
2022-10-06T23:03:36.608Z,102905.22
2022-10-06T23:06:04.050Z,102899.97
2022-10-06T23:08:35.109Z,102895.75
2022-10-06T23:11:09.957Z,102905.25
2022-10-06T23:13:36.927Z,102906.31
2022-10-06T23:16:07.512Z,102909.88
2022-10-06T23:18:36.024Z,102900.13
2022-10-06T23:21:04.180Z,102893.25
2022-10-06T23:23:31.521Z,102895.09
2022-10-06T23:26:02.847Z,102895.34
2022-10-06T23:28:29.705Z,102909.16
2022-10-06T23:30:56.878Z,102907.28
2022-10-06T23:33:23.939Z,102908.28
2022-10-06T23:36:01.162Z,102907.19
2022-10-06T23:38:28.706Z,102897.75
2022-10-06T23:40:56.002Z,102908.53
2022-10-06T23:43:23.139Z,102907.38
2022-10-06T23:45:54.823Z,102900.41
2022-10-06T23:48:22.359Z,102894.34
2022-10-06T23:50:56.537Z,102902.41
2022-10-06T23:53:23.829Z,102900.75
2022-10-06T23:55:50.595Z,102906.84
2022-10-06T23:58:17.443Z,102909.75
